sensor_id;sensor_type;location;lat;lon;timestamp;P1;durP1;ratioP1;P2;durP2;ratioP2
6376;SDS011;3221;48.858;10.128;2023-02-01T00:01:10;8.70;;;6.37;;
6376;SDS011;3221;48.858;10.128;2023-02-01T00:03:36;9.03;;;6.30;;
6376;SDS011;3221;48.858;10.128;2023-02-01T00:06:03;9.03;;;6.13;;
6376;SDS011;3221;48.858;10.128;2023-02-01T00:08:31;9.23;;;6.30;;
6376;SDS011;3221;48.858;10.128;2023-02-01T00:11:04;8.33;;;6.03;;
6376;SDS011;3221;48.858;10.128;2023-02-01T00:13:37;7.23;;;5.40;;
6376;SDS011;3221;48.858;10.128;2023-02-01T00:16:07;8.87;;;6.23;;
6376;SDS011;3221;48.858;10.128;2023-02-01T00:18:35;10.03;;;5.87;;
6376;SDS011;3221;48.858;10.128;2023-02-01T00:21:02;8.87;;;5.87;;
6376;SDS011;3221;48.858;10.128;2023-02-01T00:23:33;8.30;;;6.07;;
6376;SDS011;3221;48.858;10.128;2023-02-01T00:26:02;8.20;;;5.93;;
6376;SDS011;3221;48.858;10.128;2023-02-01T00:28:30;7.60;;;5.90;;
6376;SDS011;3221;48.858;10.128;2023-02-01T00:31:00;8.33;;;6.07;;
6376;SDS011;3221;48.858;10.128;2023-02-01T00:33:29;8.50;;;6.23;;
6376;SDS011;3221;48.858;10.128;2023-02-01T00:35:57;8.07;;;5.57;;
6376;SDS011;3221;48.858;10.128;2023-02-01T00:38:25;6.40;;;5.37;;
6376;SDS011;3221;48.858;10.128;2023-02-01T00:40:53;6.67;;;5.20;;
6376;SDS011;3221;48.858;10.128;2023-02-01T00:43:20;7.17;;;5.60;;
6376;SDS011;3221;48.858;10.128;2023-02-01T00:45:47;7.83;;;5.47;;
6376;SDS011;3221;48.858;10.128;2023-02-01T00:48:14;5.83;;;5.00;;
6376;SDS011;3221;48.858;10.128;2023-02-01T00:50:42;7.50;;;5.20;;
6376;SDS011;3221;48.858;10.128;2023-02-01T00:53:09;6.90;;;5.03;;
6376;SDS011;3221;48.858;10.128;2023-02-01T00:55:37;6.30;;;4.80;;
6376;SDS011;3221;48.858;10.128;2023-02-01T00:58:04;6.60;;;5.23;;
6376;SDS011;3221;48.858;10.128;2023-02-01T01:00:32;6.63;;;4.87;;
6376;SDS011;3221;48.858;10.128;2023-02-01T01:02:59;6.43;;;4.40;;
6376;SDS011;3221;48.858;10.128;2023-02-01T01:05:26;5.37;;;4.27;;
6376;SDS011;3221;48.858;10.128;2023-02-01T01:07:54;5.87;;;4.53;;
6376;SDS011;3221;48.858;10.128;2023-02-01T01:10:20;5.23;;;4.20;;
6376;SDS011;3221;48.858;10.128;2023-02-01T01:12:48;6.23;;;4.47;;
6376;SDS011;3221;48.858;10.128;2023-02-01T01:15:15;6.70;;;4.67;;
6376;SDS011;3221;48.858;10.128;2023-02-01T01:17:41;6.90;;;4.30;;
6376;SDS011;3221;48.858;10.128;2023-02-01T01:20:08;7.50;;;4.33;;
6376;SDS011;3221;48.858;10.128;2023-02-01T01:22:37;4.80;;;4.30;;
6376;SDS011;3221;48.858;10.128;2023-02-01T01:25:03;4.63;;;4.07;;
6376;SDS011;3221;48.858;10.128;2023-02-01T01:27:31;5.40;;;3.77;;
6376;SDS011;3221;48.858;10.128;2023-02-01T01:29:57;5.67;;;4.20;;
6376;SDS011;3221;48.858;10.128;2023-02-01T01:32:24;4.63;;;3.97;;
6376;SDS011;3221;48.858;10.128;2023-02-01T01:34:51;6.13;;;3.93;;
6376;SDS011;3221;48.858;10.128;2023-02-01T01:37:18;5.17;;;3.90;;
6376;SDS011;3221;48.858;10.128;2023-02-01T01:39:45;4.03;;;3.47;;
6376;SDS011;3221;48.858;10.128;2023-02-01T01:42:11;5.00;;;3.90;;
6376;SDS011;3221;48.858;10.128;2023-02-01T01:44:59;4.60;;;4.07;;
6376;SDS011;3221;48.858;10.128;2023-02-01T01:47:37;4.53;;;3.77;;
6376;SDS011;3221;48.858;10.128;2023-02-01T01:50:10;4.03;;;3.37;;
6376;SDS011;3221;48.858;10.128;2023-02-01T01:52:39;4.90;;;3.80;;
6376;SDS011;3221;48.858;10.128;2023-02-01T01:55:08;5.70;;;3.93;;
6376;SDS011;3221;48.858;10.128;2023-02-01T01:57:37;4.03;;;3.33;;
6376;SDS011;3221;48.858;10.128;2023-02-01T02:00:07;3.40;;;3.10;;
6376;SDS011;3221;48.858;10.128;2023-02-01T02:02:43;4.90;;;3.57;;
6376;SDS011;3221;48.858;10.128;2023-02-01T02:07:55;5.10;;;3.90;;
6376;SDS011;3221;48.858;10.128;2023-02-01T02:10:25;5.20;;;4.00;;
6376;SDS011;3221;48.858;10.128;2023-02-01T02:13:12;6.33;;;5.10;;
6376;SDS011;3221;48.858;10.128;2023-02-01T02:15:43;6.53;;;4.80;;
6376;SDS011;3221;48.858;10.128;2023-02-01T02:18:18;6.73;;;5.17;;
6376;SDS011;3221;48.858;10.128;2023-02-01T02:21:00;9.10;;;5.37;;
6376;SDS011;3221;48.858;10.128;2023-02-01T02:34:57;5.37;;;4.03;;
6376;SDS011;3221;48.858;10.128;2023-02-01T02:38:06;5.63;;;3.97;;
6376;SDS011;3221;48.858;10.128;2023-02-01T02:40:48;5.83;;;4.13;;
6376;SDS011;3221;48.858;10.128;2023-02-01T02:43:28;6.00;;;4.07;;
6376;SDS011;3221;48.858;10.128;2023-02-01T02:52:31;4.17;;;3.33;;
6376;SDS011;3221;48.858;10.128;2023-02-01T02:55:18;5.60;;;3.40;;
6376;SDS011;3221;48.858;10.128;2023-02-01T02:57:46;4.10;;;3.60;;
6376;SDS011;3221;48.858;10.128;2023-02-01T03:00:32;3.53;;;3.10;;
6376;SDS011;3221;48.858;10.128;2023-02-01T03:03:19;4.07;;;2.90;;
6376;SDS011;3221;48.858;10.128;2023-02-01T03:06:05;3.10;;;2.80;;
6376;SDS011;3221;48.858;10.128;2023-02-01T03:08:39;3.60;;;3.23;;
6376;SDS011;3221;48.858;10.128;2023-02-01T03:11:14;3.23;;;2.90;;
6376;SDS011;3221;48.858;10.128;2023-02-01T03:16:22;3.80;;;3.00;;
6376;SDS011;3221;48.858;10.128;2023-02-01T03:19:02;3.57;;;3.20;;
6376;SDS011;3221;48.858;10.128;2023-02-01T03:21:36;4.03;;;3.30;;
6376;SDS011;3221;48.858;10.128;2023-02-01T03:26:48;2.80;;;2.57;;
6376;SDS011;3221;48.858;10.128;2023-02-01T03:29:22;3.47;;;2.87;;
6376;SDS011;3221;48.858;10.128;2023-02-01T03:31:54;3.60;;;2.73;;
6376;SDS011;3221;48.858;10.128;2023-02-01T03:34:21;3.87;;;2.60;;
6376;SDS011;3221;48.858;10.128;2023-02-01T03:36:49;4.17;;;3.00;;
6376;SDS011;3221;48.858;10.128;2023-02-01T03:42:08;2.97;;;2.60;;
6376;SDS011;3221;48.858;10.128;2023-02-01T03:44:42;3.13;;;2.77;;
6376;SDS011;3221;48.858;10.128;2023-02-01T03:47:27;2.90;;;2.70;;
6376;SDS011;3221;48.858;10.128;2023-02-01T03:50:04;2.80;;;2.60;;
6376;SDS011;3221;48.858;10.128;2023-02-01T03:52:45;3.87;;;2.93;;
6376;SDS011;3221;48.858;10.128;2023-02-01T03:55:25;2.70;;;2.50;;
6376;SDS011;3221;48.858;10.128;2023-02-01T03:58:13;2.67;;;2.47;;
6376;SDS011;3221;48.858;10.128;2023-02-01T04:00:50;2.87;;;2.57;;
6376;SDS011;3221;48.858;10.128;2023-02-01T04:03:18;2.67;;;2.47;;
6376;SDS011;3221;48.858;10.128;2023-02-01T04:05:45;3.10;;;2.77;;
6376;SDS011;3221;48.858;10.128;2023-02-01T04:08:12;2.73;;;2.50;;
6376;SDS011;3221;48.858;10.128;2023-02-01T04:10:39;2.93;;;2.60;;
6376;SDS011;3221;48.858;10.128;2023-02-01T04:13:06;3.03;;;2.73;;
6376;SDS011;3221;48.858;10.128;2023-02-01T04:15:33;3.10;;;2.80;;
6376;SDS011;3221;48.858;10.128;2023-02-01T04:18:01;2.80;;;2.60;;
6376;SDS011;3221;48.858;10.128;2023-02-01T04:20:28;3.83;;;2.93;;
6376;SDS011;3221;48.858;10.128;2023-02-01T04:22:55;3.57;;;2.80;;
6376;SDS011;3221;48.858;10.128;2023-02-01T04:25:22;3.93;;;3.13;;
6376;SDS011;3221;48.858;10.128;2023-02-01T04:27:48;3.17;;;2.87;;
6376;SDS011;3221;48.858;10.128;2023-02-01T04:30:15;3.90;;;2.97;;
6376;SDS011;3221;48.858;10.128;2023-02-01T04:32:42;3.93;;;3.20;;
6376;SDS011;3221;48.858;10.128;2023-02-01T04:35:09;3.17;;;2.87;;
6376;SDS011;3221;48.858;10.128;2023-02-01T04:37:37;4.20;;;3.23;;
6376;SDS011;3221;48.858;10.128;2023-02-01T04:40:05;3.30;;;3.00;;
6376;SDS011;3221;48.858;10.128;2023-02-01T04:42:32;3.73;;;2.97;;
6376;SDS011;3221;48.858;10.128;2023-02-01T04:44:59;3.50;;;3.07;;
6376;SDS011;3221;48.858;10.128;2023-02-01T04:47:26;3.43;;;3.13;;
6376;SDS011;3221;48.858;10.128;2023-02-01T04:49:53;3.83;;;2.90;;
6376;SDS011;3221;48.858;10.128;2023-02-01T04:52:19;3.47;;;3.00;;
6376;SDS011;3221;48.858;10.128;2023-02-01T04:54:46;4.13;;;3.10;;
6376;SDS011;3221;48.858;10.128;2023-02-01T04:57:13;3.10;;;2.80;;
6376;SDS011;3221;48.858;10.128;2023-02-01T04:59:41;3.67;;;3.10;;
6376;SDS011;3221;48.858;10.128;2023-02-01T05:02:08;4.87;;;3.10;;
6376;SDS011;3221;48.858;10.128;2023-02-01T05:04:34;4.60;;;3.10;;
6376;SDS011;3221;48.858;10.128;2023-02-01T05:07:01;3.80;;;3.10;;
6376;SDS011;3221;48.858;10.128;2023-02-01T05:09:28;4.10;;;3.33;;
6376;SDS011;3221;48.858;10.128;2023-02-01T05:11:55;3.63;;;3.20;;
6376;SDS011;3221;48.858;10.128;2023-02-01T05:14:40;3.67;;;3.37;;
6376;SDS011;3221;48.858;10.128;2023-02-01T05:17:07;4.43;;;3.30;;
6376;SDS011;3221;48.858;10.128;2023-02-01T05:19:35;3.40;;;3.10;;
6376;SDS011;3221;48.858;10.128;2023-02-01T05:22:02;3.90;;;3.50;;
6376;SDS011;3221;48.858;10.128;2023-02-01T05:24:29;5.90;;;4.60;;
6376;SDS011;3221;48.858;10.128;2023-02-01T05:26:56;5.10;;;4.03;;
6376;SDS011;3221;48.858;10.128;2023-02-01T05:29:23;4.83;;;3.97;;
6376;SDS011;3221;48.858;10.128;2023-02-01T05:31:49;5.10;;;3.70;;
6376;SDS011;3221;48.858;10.128;2023-02-01T05:34:17;5.50;;;3.90;;
6376;SDS011;3221;48.858;10.128;2023-02-01T05:36:43;3.90;;;3.50;;
6376;SDS011;3221;48.858;10.128;2023-02-01T05:39:10;4.00;;;3.50;;
6376;SDS011;3221;48.858;10.128;2023-02-01T05:41:37;4.70;;;3.83;;
6376;SDS011;3221;48.858;10.128;2023-02-01T05:44:04;4.40;;;3.80;;
6376;SDS011;3221;48.858;10.128;2023-02-01T05:46:34;4.17;;;3.73;;
6376;SDS011;3221;48.858;10.128;2023-02-01T05:49:01;4.40;;;4.00;;
6376;SDS011;3221;48.858;10.128;2023-02-01T05:51:28;5.13;;;4.10;;
6376;SDS011;3221;48.858;10.128;2023-02-01T05:53:55;5.17;;;4.30;;
6376;SDS011;3221;48.858;10.128;2023-02-01T05:56:22;5.63;;;4.07;;
6376;SDS011;3221;48.858;10.128;2023-02-01T05:58:48;5.07;;;4.13;;
6376;SDS011;3221;48.858;10.128;2023-02-01T06:01:15;5.47;;;3.33;;
6376;SDS011;3221;48.858;10.128;2023-02-01T06:03:42;4.77;;;3.90;;
6376;SDS011;3221;48.858;10.128;2023-02-01T06:06:09;5.60;;;3.50;;
6376;SDS011;3221;48.858;10.128;2023-02-01T06:08:36;5.70;;;4.20;;
6376;SDS011;3221;48.858;10.128;2023-02-01T06:11:03;5.90;;;4.43;;
6376;SDS011;3221;48.858;10.128;2023-02-01T06:13:31;6.43;;;4.63;;
6376;SDS011;3221;48.858;10.128;2023-02-01T06:16:00;6.97;;;4.73;;
6376;SDS011;3221;48.858;10.128;2023-02-01T06:18:34;6.27;;;5.23;;
6376;SDS011;3221;48.858;10.128;2023-02-01T06:21:01;5.57;;;4.37;;
6376;SDS011;3221;48.858;10.128;2023-02-01T06:23:29;5.03;;;3.80;;
6376;SDS011;3221;48.858;10.128;2023-02-01T06:26:04;5.27;;;4.53;;
6376;SDS011;3221;48.858;10.128;2023-02-01T06:28:33;4.10;;;3.70;;
6376;SDS011;3221;48.858;10.128;2023-02-01T06:31:04;4.07;;;3.67;;
6376;SDS011;3221;48.858;10.128;2023-02-01T06:33:33;4.23;;;3.63;;
6376;SDS011;3221;48.858;10.128;2023-02-01T06:36:02;5.07;;;3.70;;
6376;SDS011;3221;48.858;10.128;2023-02-01T06:38:30;4.37;;;3.40;;
6376;SDS011;3221;48.858;10.128;2023-02-01T06:40:57;3.50;;;3.13;;
6376;SDS011;3221;48.858;10.128;2023-02-01T06:43:25;3.93;;;3.13;;
6376;SDS011;3221;48.858;10.128;2023-02-01T06:45:52;4.20;;;3.70;;
6376;SDS011;3221;48.858;10.128;2023-02-01T06:48:25;4.47;;;3.60;;
6376;SDS011;3221;48.858;10.128;2023-02-01T06:50:51;4.53;;;3.50;;
6376;SDS011;3221;48.858;10.128;2023-02-01T06:53:18;3.87;;;3.47;;
6376;SDS011;3221;48.858;10.128;2023-02-01T06:55:54;4.00;;;3.10;;
6376;SDS011;3221;48.858;10.128;2023-02-01T06:58:23;3.90;;;3.40;;
6376;SDS011;3221;48.858;10.128;2023-02-01T07:00:50;3.77;;;3.43;;
6376;SDS011;3221;48.858;10.128;2023-02-01T07:03:20;3.93;;;2.87;;
6376;SDS011;3221;48.858;10.128;2023-02-01T07:05:46;3.93;;;3.33;;
6376;SDS011;3221;48.858;10.128;2023-02-01T07:08:13;5.10;;;3.60;;
6376;SDS011;3221;48.858;10.128;2023-02-01T07:10:40;4.60;;;3.77;;
6376;SDS011;3221;48.858;10.128;2023-02-01T07:13:07;5.27;;;3.80;;
6376;SDS011;3221;48.858;10.128;2023-02-01T07:15:34;6.27;;;4.40;;
6376;SDS011;3221;48.858;10.128;2023-02-01T07:18:01;4.37;;;3.80;;
6376;SDS011;3221;48.858;10.128;2023-02-01T07:20:27;4.30;;;3.90;;
6376;SDS011;3221;48.858;10.128;2023-02-01T07:22:55;6.30;;;4.20;;
6376;SDS011;3221;48.858;10.128;2023-02-01T07:25:23;6.10;;;4.23;;
6376;SDS011;3221;48.858;10.128;2023-02-01T07:27:50;5.63;;;4.20;;
6376;SDS011;3221;48.858;10.128;2023-02-01T07:30:17;5.67;;;4.30;;
6376;SDS011;3221;48.858;10.128;2023-02-01T07:32:44;4.50;;;3.83;;
6376;SDS011;3221;48.858;10.128;2023-02-01T07:35:11;5.03;;;3.83;;
6376;SDS011;3221;48.858;10.128;2023-02-01T07:37:38;4.50;;;3.63;;
6376;SDS011;3221;48.858;10.128;2023-02-01T07:40:04;4.40;;;3.70;;
6376;SDS011;3221;48.858;10.128;2023-02-01T07:42:33;6.23;;;4.10;;
6376;SDS011;3221;48.858;10.128;2023-02-01T07:45:00;5.47;;;4.07;;
6376;SDS011;3221;48.858;10.128;2023-02-01T07:47:46;4.47;;;4.03;;
6376;SDS011;3221;48.858;10.128;2023-02-01T07:50:13;5.63;;;4.80;;
6376;SDS011;3221;48.858;10.128;2023-02-01T07:52:40;5.73;;;4.30;;
6376;SDS011;3221;48.858;10.128;2023-02-01T07:55:07;6.10;;;4.87;;
6376;SDS011;3221;48.858;10.128;2023-02-01T07:57:34;6.23;;;4.80;;
6376;SDS011;3221;48.858;10.128;2023-02-01T08:00:01;6.27;;;4.60;;
6376;SDS011;3221;48.858;10.128;2023-02-01T08:02:47;6.33;;;5.00;;
6376;SDS011;3221;48.858;10.128;2023-02-01T08:08:09;5.30;;;4.63;;
6376;SDS011;3221;48.858;10.128;2023-02-01T08:10:36;5.90;;;4.80;;
6376;SDS011;3221;48.858;10.128;2023-02-01T08:13:03;5.23;;;4.20;;
6376;SDS011;3221;48.858;10.128;2023-02-01T08:15:30;5.30;;;4.20;;
6376;SDS011;3221;48.858;10.128;2023-02-01T08:17:57;7.00;;;4.33;;
6376;SDS011;3221;48.858;10.128;2023-02-01T08:20:24;5.70;;;4.23;;
6376;SDS011;3221;48.858;10.128;2023-02-01T08:22:54;4.70;;;3.87;;
6376;SDS011;3221;48.858;10.128;2023-02-01T08:25:21;6.37;;;4.43;;
6376;SDS011;3221;48.858;10.128;2023-02-01T08:27:49;6.23;;;4.23;;
6376;SDS011;3221;48.858;10.128;2023-02-01T08:30:17;5.27;;;4.27;;
6376;SDS011;3221;48.858;10.128;2023-02-01T08:32:44;5.27;;;4.20;;
6376;SDS011;3221;48.858;10.128;2023-02-01T08:35:11;5.77;;;4.17;;
6376;SDS011;3221;48.858;10.128;2023-02-01T08:37:38;4.70;;;3.70;;
6376;SDS011;3221;48.858;10.128;2023-02-01T08:40:05;6.93;;;4.10;;
6376;SDS011;3221;48.858;10.128;2023-02-01T08:42:32;4.17;;;3.73;;
6376;SDS011;3221;48.858;10.128;2023-02-01T08:45:18;5.67;;;3.90;;
6376;SDS011;3221;48.858;10.128;2023-02-01T08:47:53;5.70;;;4.20;;
6376;SDS011;3221;48.858;10.128;2023-02-01T08:50:20;6.23;;;4.60;;
6376;SDS011;3221;48.858;10.128;2023-02-01T08:52:49;5.07;;;4.07;;
6376;SDS011;3221;48.858;10.128;2023-02-01T08:55:16;5.03;;;4.13;;
6376;SDS011;3221;48.858;10.128;2023-02-01T08:57:43;8.47;;;4.70;;
6376;SDS011;3221;48.858;10.128;2023-02-01T09:00:11;8.30;;;4.90;;
6376;SDS011;3221;48.858;10.128;2023-02-01T09:02:41;5.63;;;4.70;;
6376;SDS011;3221;48.858;10.128;2023-02-01T09:05:08;5.77;;;4.20;;
6376;SDS011;3221;48.858;10.128;2023-02-01T09:07:37;4.77;;;3.80;;
6376;SDS011;3221;48.858;10.128;2023-02-01T09:10:04;6.43;;;4.30;;
6376;SDS011;3221;48.858;10.128;2023-02-01T09:12:31;4.93;;;4.10;;
6376;SDS011;3221;48.858;10.128;2023-02-01T09:14:59;5.20;;;4.07;;
6376;SDS011;3221;48.858;10.128;2023-02-01T09:17:26;5.53;;;4.70;;
6376;SDS011;3221;48.858;10.128;2023-02-01T09:19:54;9.67;;;5.67;;
6376;SDS011;3221;48.858;10.128;2023-02-01T09:22:21;8.73;;;5.40;;
6376;SDS011;3221;48.858;10.128;2023-02-01T09:24:48;7.60;;;5.50;;
6376;SDS011;3221;48.858;10.128;2023-02-01T09:27:15;7.37;;;6.00;;
6376;SDS011;3221;48.858;10.128;2023-02-01T09:29:42;10.43;;;6.40;;
6376;SDS011;3221;48.858;10.128;2023-02-01T09:32:09;9.40;;;6.20;;
6376;SDS011;3221;48.858;10.128;2023-02-01T09:34:36;8.83;;;5.90;;
6376;SDS011;3221;48.858;10.128;2023-02-01T09:37:02;7.47;;;5.53;;
6376;SDS011;3221;48.858;10.128;2023-02-01T09:39:29;7.83;;;4.87;;
6376;SDS011;3221;48.858;10.128;2023-02-01T09:42:02;6.53;;;4.60;;
6376;SDS011;3221;48.858;10.128;2023-02-01T09:44:49;6.30;;;4.63;;
6376;SDS011;3221;48.858;10.128;2023-02-01T09:47:26;6.47;;;4.60;;
6376;SDS011;3221;48.858;10.128;2023-02-01T09:52:32;5.27;;;4.57;;
6376;SDS011;3221;48.858;10.128;2023-02-01T09:55:07;6.37;;;4.40;;
6376;SDS011;3221;48.858;10.128;2023-02-01T09:58:02;8.77;;;4.20;;
6376;SDS011;3221;48.858;10.128;2023-02-01T10:00:34;7.83;;;4.57;;
6376;SDS011;3221;48.858;10.128;2023-02-01T10:03:03;7.53;;;4.67;;
6376;SDS011;3221;48.858;10.128;2023-02-01T10:08:04;7.70;;;4.70;;
6376;SDS011;3221;48.858;10.128;2023-02-01T10:10:46;6.70;;;4.53;;
6376;SDS011;3221;48.858;10.128;2023-02-01T10:19:31;5.70;;;4.07;;
6376;SDS011;3221;48.858;10.128;2023-02-01T10:22:05;5.93;;;4.47;;
6376;SDS011;3221;48.858;10.128;2023-02-01T10:27:21;7.23;;;4.10;;
6376;SDS011;3221;48.858;10.128;2023-02-01T10:29:58;5.80;;;4.30;;
6376;SDS011;3221;48.858;10.128;2023-02-01T10:32:28;7.27;;;4.60;;
6376;SDS011;3221;48.858;10.128;2023-02-01T10:34:58;6.03;;;4.23;;
6376;SDS011;3221;48.858;10.128;2023-02-01T10:37:31;8.83;;;4.87;;
6376;SDS011;3221;48.858;10.128;2023-02-01T10:40:12;7.23;;;5.30;;
6376;SDS011;3221;48.858;10.128;2023-02-01T10:42:43;7.30;;;4.93;;
6376;SDS011;3221;48.858;10.128;2023-02-01T10:45:19;6.93;;;4.77;;
6376;SDS011;3221;48.858;10.128;2023-02-01T10:47:49;8.50;;;5.03;;
6376;SDS011;3221;48.858;10.128;2023-02-01T10:52:56;9.90;;;5.30;;
6376;SDS011;3221;48.858;10.128;2023-02-01T10:58:01;10.30;;;4.87;;
6376;SDS011;3221;48.858;10.128;2023-02-01T11:00:36;8.33;;;4.60;;
6376;SDS011;3221;48.858;10.128;2023-02-01T11:03:19;8.40;;;4.87;;
6376;SDS011;3221;48.858;10.128;2023-02-01T11:08:49;8.83;;;5.30;;
6376;SDS011;3221;48.858;10.128;2023-02-01T11:11:21;9.00;;;4.97;;
6376;SDS011;3221;48.858;10.128;2023-02-01T11:13:56;8.17;;;4.60;;
6376;SDS011;3221;48.858;10.128;2023-02-01T11:16:29;5.60;;;4.73;;
6376;SDS011;3221;48.858;10.128;2023-02-01T11:19:00;8.50;;;4.57;;
6376;SDS011;3221;48.858;10.128;2023-02-01T11:21:27;5.70;;;4.37;;
6376;SDS011;3221;48.858;10.128;2023-02-01T11:23:54;6.90;;;4.57;;
6376;SDS011;3221;48.858;10.128;2023-02-01T11:26:25;7.87;;;5.03;;
6376;SDS011;3221;48.858;10.128;2023-02-01T11:28:56;8.87;;;5.83;;
6376;SDS011;3221;48.858;10.128;2023-02-01T11:31:24;10.80;;;6.07;;
6376;SDS011;3221;48.858;10.128;2023-02-01T11:33:54;8.40;;;5.30;;
6376;SDS011;3221;48.858;10.128;2023-02-01T11:36:26;10.27;;;5.80;;
6376;SDS011;3221;48.858;10.128;2023-02-01T11:41:42;9.03;;;5.20;;
6376;SDS011;3221;48.858;10.128;2023-02-01T11:44:21;8.20;;;5.47;;
6376;SDS011;3221;48.858;10.128;2023-02-01T11:49:49;9.60;;;5.27;;
6376;SDS011;3221;48.858;10.128;2023-02-01T12:20:19;11.03;;;4.70;;
6376;SDS011;3221;48.858;10.128;2023-02-01T12:25:58;10.67;;;4.93;;
6376;SDS011;3221;48.858;10.128;2023-02-01T12:34:13;9.90;;;5.20;;
6376;SDS011;3221;48.858;10.128;2023-02-01T12:37:06;8.27;;;4.57;;
6376;SDS011;3221;48.858;10.128;2023-02-01T12:43:00;9.57;;;4.17;;
6376;SDS011;3221;48.858;10.128;2023-02-01T12:45:39;12.27;;;4.43;;
6376;SDS011;3221;48.858;10.128;2023-02-01T12:48:38;10.07;;;4.87;;
6376;SDS011;3221;48.858;10.128;2023-02-01T12:51:17;9.07;;;4.30;;
6376;SDS011;3221;48.858;10.128;2023-02-01T12:53:51;7.80;;;4.43;;
6376;SDS011;3221;48.858;10.128;2023-02-01T12:56:28;15.90;;;4.90;;
6376;SDS011;3221;48.858;10.128;2023-02-01T12:59:08;10.83;;;4.40;;
6376;SDS011;3221;48.858;10.128;2023-02-01T13:01:58;7.90;;;4.03;;
6376;SDS011;3221;48.858;10.128;2023-02-01T13:04:38;10.43;;;4.23;;
6376;SDS011;3221;48.858;10.128;2023-02-01T13:09:53;12.43;;;5.60;;
6376;SDS011;3221;48.858;10.128;2023-02-01T13:12:56;8.37;;;4.73;;
6376;SDS011;3221;48.858;10.128;2023-02-01T13:15:44;10.73;;;4.70;;
6376;SDS011;3221;48.858;10.128;2023-02-01T13:18:34;10.07;;;5.10;;
6376;SDS011;3221;48.858;10.128;2023-02-01T13:21:08;12.67;;;5.23;;
6376;SDS011;3221;48.858;10.128;2023-02-01T13:23:41;9.43;;;5.27;;
6376;SDS011;3221;48.858;10.128;2023-02-01T13:26:12;15.30;;;6.07;;
6376;SDS011;3221;48.858;10.128;2023-02-01T13:28:49;15.53;;;7.37;;
6376;SDS011;3221;48.858;10.128;2023-02-01T13:39:19;18.80;;;8.93;;
6376;SDS011;3221;48.858;10.128;2023-02-01T13:42:01;18.17;;;8.77;;
6376;SDS011;3221;48.858;10.128;2023-02-01T13:44:46;16.33;;;8.13;;
6376;SDS011;3221;48.858;10.128;2023-02-01T13:47:24;19.60;;;8.97;;
6376;SDS011;3221;48.858;10.128;2023-02-01T13:50:00;15.23;;;9.27;;
6376;SDS011;3221;48.858;10.128;2023-02-01T13:52:39;17.10;;;7.73;;
6376;SDS011;3221;48.858;10.128;2023-02-01T13:55:31;17.20;;;7.93;;
6376;SDS011;3221;48.858;10.128;2023-02-01T13:58:15;16.60;;;8.43;;
6376;SDS011;3221;48.858;10.128;2023-02-01T14:00:47;17.00;;;8.70;;
6376;SDS011;3221;48.858;10.128;2023-02-01T14:03:21;19.23;;;7.50;;
6376;SDS011;3221;48.858;10.128;2023-02-01T14:08:39;12.90;;;6.43;;
6376;SDS011;3221;48.858;10.128;2023-02-01T14:11:07;14.43;;;7.33;;
6376;SDS011;3221;48.858;10.128;2023-02-01T14:16:43;13.27;;;5.07;;
6376;SDS011;3221;48.858;10.128;2023-02-01T14:19:31;11.07;;;5.23;;
6376;SDS011;3221;48.858;10.128;2023-02-01T14:24:53;11.07;;;4.47;;
6376;SDS011;3221;48.858;10.128;2023-02-01T14:27:23;8.60;;;4.37;;
6376;SDS011;3221;48.858;10.128;2023-02-01T14:30:05;14.30;;;5.30;;
6376;SDS011;3221;48.858;10.128;2023-02-01T14:32:34;8.83;;;4.30;;
6376;SDS011;3221;48.858;10.128;2023-02-01T14:35:12;9.10;;;4.30;;
6376;SDS011;3221;48.858;10.128;2023-02-01T14:37:50;9.77;;;4.03;;
6376;SDS011;3221;48.858;10.128;2023-02-01T14:40:20;11.60;;;4.03;;
6376;SDS011;3221;48.858;10.128;2023-02-01T14:42:51;11.03;;;4.17;;
6376;SDS011;3221;48.858;10.128;2023-02-01T14:53:10;5.97;;;3.60;;
6376;SDS011;3221;48.858;10.128;2023-02-01T14:58:15;9.33;;;4.10;;
6376;SDS011;3221;48.858;10.128;2023-02-01T15:06:40;10.20;;;4.67;;
6376;SDS011;3221;48.858;10.128;2023-02-01T15:09:27;11.27;;;4.40;;
6376;SDS011;3221;48.858;10.128;2023-02-01T15:14:44;11.00;;;4.27;;
6376;SDS011;3221;48.858;10.128;2023-02-01T15:17:31;9.47;;;4.07;;
6376;SDS011;3221;48.858;10.128;2023-02-01T15:20:19;12.03;;;3.93;;
6376;SDS011;3221;48.858;10.128;2023-02-01T15:23:02;8.87;;;4.10;;
6376;SDS011;3221;48.858;10.128;2023-02-01T15:25:44;9.17;;;4.10;;
6376;SDS011;3221;48.858;10.128;2023-02-01T15:28:12;8.77;;;4.40;;
6376;SDS011;3221;48.858;10.128;2023-02-01T15:30:50;13.07;;;4.33;;
6376;SDS011;3221;48.858;10.128;2023-02-01T15:33:31;8.07;;;3.83;;
6376;SDS011;3221;48.858;10.128;2023-02-01T15:38:36;8.37;;;4.40;;
6376;SDS011;3221;48.858;10.128;2023-02-01T15:41:17;8.30;;;4.23;;
6376;SDS011;3221;48.858;10.128;2023-02-01T15:46:21;11.20;;;4.83;;
6376;SDS011;3221;48.858;10.128;2023-02-01T15:49:04;10.20;;;5.30;;
6376;SDS011;3221;48.858;10.128;2023-02-01T15:51:43;7.47;;;4.20;;
6376;SDS011;3221;48.858;10.128;2023-02-01T15:54:16;11.37;;;5.03;;
6376;SDS011;3221;48.858;10.128;2023-02-01T15:56:58;13.00;;;4.50;;
6376;SDS011;3221;48.858;10.128;2023-02-01T15:59:43;36.80;;;12.13;;
6376;SDS011;3221;48.858;10.128;2023-02-01T16:02:27;30.37;;;10.33;;
6376;SDS011;3221;48.858;10.128;2023-02-01T16:04:54;43.40;;;14.63;;
6376;SDS011;3221;48.858;10.128;2023-02-01T16:07:25;43.37;;;15.90;;
6376;SDS011;3221;48.858;10.128;2023-02-01T16:09:54;30.30;;;11.63;;
6376;SDS011;3221;48.858;10.128;2023-02-01T16:12:30;26.40;;;10.60;;
6376;SDS011;3221;48.858;10.128;2023-02-01T16:15:13;23.97;;;10.63;;
6376;SDS011;3221;48.858;10.128;2023-02-01T16:17:40;19.37;;;8.57;;
6376;SDS011;3221;48.858;10.128;2023-02-01T16:20:07;21.73;;;8.10;;
6376;SDS011;3221;48.858;10.128;2023-02-01T16:22:35;15.00;;;6.30;;
6376;SDS011;3221;48.858;10.128;2023-02-01T16:25:02;13.03;;;5.83;;
6376;SDS011;3221;48.858;10.128;2023-02-01T16:27:29;12.33;;;5.40;;
6376;SDS011;3221;48.858;10.128;2023-02-01T16:29:56;9.97;;;4.43;;
6376;SDS011;3221;48.858;10.128;2023-02-01T16:32:23;14.17;;;5.20;;
6376;SDS011;3221;48.858;10.128;2023-02-01T16:34:50;14.67;;;5.20;;
6376;SDS011;3221;48.858;10.128;2023-02-01T16:37:19;10.93;;;4.83;;
6376;SDS011;3221;48.858;10.128;2023-02-01T16:39:49;11.47;;;4.90;;
6376;SDS011;3221;48.858;10.128;2023-02-01T16:42:17;10.07;;;5.30;;
6376;SDS011;3221;48.858;10.128;2023-02-01T16:44:45;10.43;;;5.53;;
6376;SDS011;3221;48.858;10.128;2023-02-01T16:47:14;10.83;;;6.33;;
6376;SDS011;3221;48.858;10.128;2023-02-01T16:49:49;10.80;;;6.00;;
6376;SDS011;3221;48.858;10.128;2023-02-01T16:52:19;10.33;;;5.87;;
6376;SDS011;3221;48.858;10.128;2023-02-01T16:54:48;12.03;;;6.27;;
6376;SDS011;3221;48.858;10.128;2023-02-01T16:57:16;11.00;;;5.60;;
6376;SDS011;3221;48.858;10.128;2023-02-01T16:59:44;12.40;;;5.47;;
6376;SDS011;3221;48.858;10.128;2023-02-01T17:02:12;12.07;;;5.77;;
6376;SDS011;3221;48.858;10.128;2023-02-01T17:04:45;11.67;;;6.23;;
6376;SDS011;3221;48.858;10.128;2023-02-01T17:07:15;10.97;;;5.53;;
6376;SDS011;3221;48.858;10.128;2023-02-01T17:09:43;10.40;;;5.20;;
6376;SDS011;3221;48.858;10.128;2023-02-01T17:12:29;11.17;;;4.73;;
6376;SDS011;3221;48.858;10.128;2023-02-01T17:14:58;7.17;;;4.27;;
6376;SDS011;3221;48.858;10.128;2023-02-01T17:17:28;8.53;;;4.97;;
6376;SDS011;3221;48.858;10.128;2023-02-01T17:20:09;13.57;;;5.30;;
6376;SDS011;3221;48.858;10.128;2023-02-01T17:22:45;11.30;;;4.80;;
6376;SDS011;3221;48.858;10.128;2023-02-01T17:25:16;12.43;;;5.23;;
6376;SDS011;3221;48.858;10.128;2023-02-01T17:27:44;8.10;;;4.77;;
6376;SDS011;3221;48.858;10.128;2023-02-01T17:30:12;8.87;;;4.40;;
6376;SDS011;3221;48.858;10.128;2023-02-01T17:32:41;9.90;;;4.47;;
6376;SDS011;3221;48.858;10.128;2023-02-01T17:35:15;7.20;;;4.53;;
6376;SDS011;3221;48.858;10.128;2023-02-01T17:37:45;13.50;;;4.70;;
6376;SDS011;3221;48.858;10.128;2023-02-01T17:40:13;7.93;;;4.30;;
6376;SDS011;3221;48.858;10.128;2023-02-01T17:42:40;12.90;;;4.67;;
6376;SDS011;3221;48.858;10.128;2023-02-01T17:45:15;11.50;;;4.33;;
6376;SDS011;3221;48.858;10.128;2023-02-01T17:47:49;9.20;;;4.30;;